This is the latest recevied weather packets stored in our database for station/object AB2HM. If no packets are shown the sender has not sent any weather packets the latest 10 day(s).
| Time | Temp. | Humidity | Pressure | Rain* | Wind** | Luminosity | Snow |
|---|---|---|---|---|---|---|---|
| 1777967168 | 17.22° C | 69% | 1011.9 hPa | 0 mm | - | - | - |
| 1777965362 | 16.67° C | 70% | 1011.8 hPa | 0 mm | - | - | - |
| 1777963559 | 16.67° C | 70% | 1011.8 hPa | 0 mm | - | - | - |
| 1777961755 | 17.22° C | 66% | 1011.7 hPa | 0 mm | - | - | - |
| 1777959955 | 17.78° C | 62% | 1011.8 hPa | 0 mm | - | - | - |
| 1777958150 | 18.33° C | 61% | 1011.9 hPa | 0 mm | - | - | - |
| 1777956348 | 18.33° C | 61% | 1011.8 hPa | 0 mm | - | - | - |
| 1777954543 | 17.78° C | 62% | 1012 hPa | 0 mm | - | - | - |
| 1777952739 | 17.78° C | 62% | 1011.8 hPa | 0 mm | - | - | - |
| 1777950938 | 17.78° C | 61% | 1011.7 hPa | 0 mm | - | - | - |
| 1777949122 | 18.33° C | 58% | 1012.1 hPa | 0 mm | - | - | - |
| 1777947314 | 18.33° C | 52% | 1012.2 hPa | 0 mm | - | - | - |
| 1777945509 | 18.89° C | 47% | 1012.1 hPa | 0 mm | - | - | - |
| 1777943694 | 19.44° C | 46% | 1011.8 hPa | 0 mm | - | - | - |
| 1777941893 | 20° C | 44% | 1011.6 hPa | 0 mm | - | - | - |
| 1777940088 | 20.56° C | 41% | 1011.3 hPa | 0 mm | - | - | - |
| 1777936471 | 22.78° C | 35% | 1011.1 hPa | 0 mm | - | - | - |
| 1777934648 | 23.33° C | 32% | 1011 hPa | 0 mm | - | - | - |
| 1777932841 | 23.33° C | 30% | 1011.1 hPa | 0 mm | - | - | - |
| 1777931027 | 23.89° C | 30% | 1011.2 hPa | 0 mm | - | - | - |
| 1777929227 | 24.44° C | 30% | 1011.1 hPa | 0 mm | - | - | - |
| 1777927415 | 24.44° C | 29% | 1011.2 hPa | 0 mm | - | - | - |
| 1777925611 | 23.89° C | 28% | 1011.3 hPa | 0 mm | - | - | - |
| 1777923801 | 24.44° C | 28% | 1011.6 hPa | 0 mm | - | - | - |
| 1777921993 | 24.44° C | 29% | 1011.9 hPa | 0 mm | - | - | - |
* Rain latest hour (hover to see other rain measurements)
** Current wind speed in m/s (hover to see current wind gust speed)